Time;durP1;ratioP1;P1;durP2;ratioP2;P2;SDS_P1;SDS_P2;PMS_P1;PMS_P2;Temp;Humidity;BMP_temperature;BMP_pressure;BME280_temperature;BME280_humidity;BME280_pressure;Samples;Min_cycle;Max_cycle;Signal;HPM_P1;HPM_P2
2020/12/02 00:00:38;;;;;;;32.03;17.53;;;;;;;;;;5096646;28;20617;-81
2020/12/02 00:03:08;;;;;;;39.13;18.23;;;;;;;;;;5096856;28;20617;-82
2020/12/02 00:05:35;;;;;;;36.50;17.63;;;;;;;;;;5096467;28;20232;-81
2020/12/02 00:08:05;;;;;;;32.87;16.77;;;;;;;;;;5096547;28;20229;-81
2020/12/02 00:10:32;;;;;;;36.17;17.93;;;;;;;;;;5096412;28;20233;-81
2020/12/02 00:12:58;;;;;;;32.43;16.40;;;;;;;;;;5096748;28;20626;-82
2020/12/02 00:15:24;;;;;;;38.70;17.27;;;;;;;;;;5096666;28;20245;-82
2020/12/02 00:17:53;;;;;;;40.77;18.73;;;;;;;;;;5096414;28;20290;-82
2020/12/02 00:20:19;;;;;;;41.83;18.47;;;;;;;;;;5096594;28;20206;-81
2020/12/02 00:22:46;;;;;;;38.17;18.00;;;;;;;;;;5096374;28;20240;-82
2020/12/02 00:25:13;;;;;;;40.97;18.77;;;;;;;;;;5096303;28;20234;-81
2020/12/02 00:27:39;;;;;;;41.17;18.07;;;;;;;;;;5096319;28;20225;-81
2020/12/02 00:30:05;;;;;;;43.23;19.30;;;;;;;;;;5095944;28;20638;-82
2020/12/02 00:32:32;;;;;;;48.13;20.77;;;;;;;;;;5095749;28;20497;-82
2020/12/02 00:34:59;;;;;;;45.03;19.60;;;;;;;;;;5095817;28;20556;-82
2020/12/02 00:37:26;;;;;;;49.27;19.17;;;;;;;;;;5096109;28;20244;-82
2020/12/02 00:39:53;;;;;;;46.27;20.67;;;;;;;;;;5095436;28;20249;-82
2020/12/02 00:42:20;;;;;;;58.40;19.57;;;;;;;;;;5096082;28;20198;-81
2020/12/02 00:44:46;;;;;;;50.20;20.90;;;;;;;;;;5095479;28;20237;-79
2020/12/02 00:47:14;;;;;;;51.33;20.73;;;;;;;;;;5095495;28;20228;-81
2020/12/02 00:49:40;;;;;;;49.60;20.30;;;;;;;;;;5094756;28;20222;-81
2020/12/02 00:52:06;;;;;;;50.67;21.97;;;;;;;;;;5095961;28;20236;-80
2020/12/02 00:54:33;;;;;;;51.10;21.10;;;;;;;;;;5095504;28;20610;-82
2020/12/02 00:57:00;;;;;;;48.07;21.37;;;;;;;;;;5096042;28;20237;-82
2020/12/02 00:59:28;;;;;;;50.53;22.13;;;;;;;;;;5094312;28;20292;-81
2020/12/02 01:01:58;;;;;;;54.23;21.43;;;;;;;;;;5095714;28;20229;-81
2020/12/02 01:04:24;;;;;;;49.83;21.47;;;;;;;;;;5095113;28;20621;-80
2020/12/02 01:06:52;;;;;;;43.97;20.50;;;;;;;;;;5095724;28;20238;-81
2020/12/02 01:09:19;;;;;;;41.47;19.80;;;;;;;;;;5095134;28;20323;-82
2020/12/02 01:11:45;;;;;;;40.63;19.73;;;;;;;;;;5094469;28;20252;-82
2020/12/02 01:14:15;;;;;;;38.87;20.50;;;;;;;;;;5095111;28;20233;-81
2020/12/02 01:16:43;;;;;;;45.43;20.57;;;;;;;;;;5094758;28;20237;-81
2020/12/02 01:19:11;;;;;;;46.10;21.20;;;;;;;;;;5094678;28;20252;-82
2020/12/02 01:21:38;;;;;;;39.67;20.00;;;;;;;;;;5094757;28;20240;-81
2020/12/02 01:24:06;;;;;;;34.50;20.57;;;;;;;;;;5095218;28;20597;-81
2020/12/02 01:26:35;;;;;;;40.10;20.53;;;;;;;;;;5095472;28;20233;-80
2020/12/02 01:29:03;;;;;;;39.80;19.43;;;;;;;;;;5095005;28;20217;-81
2020/12/02 01:31:31;;;;;;;37.90;19.53;;;;;;;;;;5095038;28;20638;-80
2020/12/02 01:33:57;;;;;;;42.80;20.93;;;;;;;;;;5094742;28;20237;-80
2020/12/02 01:36:25;;;;;;;41.33;20.10;;;;;;;;;;5094960;28;20206;-81
2020/12/02 01:38:52;;;;;;;39.00;19.77;;;;;;;;;;5095069;28;20252;-82
2020/12/02 01:41:18;;;;;;;32.30;18.53;;;;;;;;;;5095036;28;20229;-82
2020/12/02 01:43:45;;;;;;;36.20;18.77;;;;;;;;;;5094803;28;20206;-82
2020/12/02 01:46:16;;;;;;;34.90;18.10;;;;;;;;;;5094993;28;20237;-82
2020/12/02 01:49:03;;;;;;;33.53;17.77;;;;;;;;;;5094719;28;20206;-80
2020/12/02 01:51:43;;;;;;;38.53;18.50;;;;;;;;;;5089495;28;20295;-80
2020/12/02 01:54:11;;;;;;;33.20;18.60;;;;;;;;;;5094822;28;20209;-81
2020/12/02 01:56:41;;;;;;;34.87;17.77;;;;;;;;;;5094862;28;20236;-80
2020/12/02 01:59:13;;;;;;;30.50;17.17;;;;;;;;;;5094813;28;20245;-81
2020/12/02 02:01:47;;;;;;;33.90;17.63;;;;;;;;;;5093849;28;20610;-82
2020/12/02 02:04:14;;;;;;;34.37;17.43;;;;;;;;;;5094771;28;20206;-82
2020/12/02 02:06:49;;;;;;;31.30;16.80;;;;;;;;;;5095154;28;20239;-81
2020/12/02 02:09:15;;;;;;;28.37;17.23;;;;;;;;;;5094303;28;20236;-80
2020/12/02 02:11:46;;;;;;;30.17;17.03;;;;;;;;;;5095061;28;20234;-80
2020/12/02 02:14:22;;;;;;;28.07;16.27;;;;;;;;;;5093743;28;20618;-82
2020/12/02 02:16:48;;;;;;;34.20;16.57;;;;;;;;;;5094392;28;20628;-82
2020/12/02 02:19:18;;;;;;;28.80;15.87;;;;;;;;;;5094450;28;20258;-82
2020/12/02 02:21:46;;;;;;;28.93;16.80;;;;;;;;;;5094988;28;20504;-82
2020/12/02 02:24:13;;;;;;;28.00;16.97;;;;;;;;;;5094179;28;20226;-81
2020/12/02 02:26:41;;;;;;;28.10;16.33;;;;;;;;;;5094901;28;20225;-82
2020/12/02 02:29:09;;;;;;;27.93;15.87;;;;;;;;;;5096575;28;20234;-82
2020/12/02 02:31:38;;;;;;;27.07;15.17;;;;;;;;;;5098068;28;20253;-82
2020/12/02 02:34:05;;;;;;;26.43;15.90;;;;;;;;;;5097737;28;20307;-82
2020/12/02 02:36:31;;;;;;;23.53;14.90;;;;;;;;;;5098570;28;20237;-81
2020/12/02 02:38:57;;;;;;;25.77;15.30;;;;;;;;;;5097878;28;20248;-80
2020/12/02 02:41:25;;;;;;;22.87;14.77;;;;;;;;;;5098613;28;20490;-82
2020/12/02 02:43:52;;;;;;;21.10;13.77;;;;;;;;;;5097364;28;20232;-82
2020/12/02 02:46:18;;;;;;;21.47;14.57;;;;;;;;;;5098032;28;20316;-82
2020/12/02 02:48:44;;;;;;;19.87;13.93;;;;;;;;;;5097739;28;20225;-82
2020/12/02 02:51:11;;;;;;;23.87;14.27;;;;;;;;;;5098516;28;20210;-81
2020/12/02 02:53:37;;;;;;;22.23;14.40;;;;;;;;;;5098025;28;20240;-82
2020/12/02 02:56:03;;;;;;;21.60;13.90;;;;;;;;;;5098239;28;20637;-82
2020/12/02 02:58:29;;;;;;;19.47;13.33;;;;;;;;;;5096956;28;20559;-82
2020/12/02 03:00:57;;;;;;;23.57;13.43;;;;;;;;;;5096636;28;20198;-82
2020/12/02 03:03:24;;;;;;;19.90;13.03;;;;;;;;;;5097669;28;20274;-82
2020/12/02 03:05:50;;;;;;;21.20;13.43;;;;;;;;;;5097914;28;20233;-81
2020/12/02 03:08:16;;;;;;;20.17;13.90;;;;;;;;;;5097583;28;20233;-82
2020/12/02 03:10:43;;;;;;;21.43;13.83;;;;;;;;;;5098030;28;20229;-81
2020/12/02 03:13:15;;;;;;;17.57;12.27;;;;;;;;;;5097834;28;20237;-82
2020/12/02 03:15:42;;;;;;;18.80;12.40;;;;;;;;;;5097768;28;20210;-80
2020/12/02 03:18:09;;;;;;;20.77;12.57;;;;;;;;;;5097328;28;20236;-80
2020/12/02 03:20:37;;;;;;;18.43;13.13;;;;;;;;;;5097658;28;20261;-81
2020/12/02 03:23:03;;;;;;;20.03;13.10;;;;;;;;;;5097138;28;20209;-82
2020/12/02 03:25:31;;;;;;;18.73;13.37;;;;;;;;;;5097461;28;20502;-82
2020/12/02 03:27:58;;;;;;;20.10;13.33;;;;;;;;;;5097404;28;20233;-82
2020/12/02 03:30:24;;;;;;;18.37;12.80;;;;;;;;;;5097124;28;20245;-82
2020/12/02 03:32:50;;;;;;;20.23;13.13;;;;;;;;;;5097403;28;20556;-81
2020/12/02 03:35:17;;;;;;;19.03;12.50;;;;;;;;;;5097318;28;20238;-82
2020/12/02 03:37:43;;;;;;;20.10;12.30;;;;;;;;;;5097287;28;20229;-83
2020/12/02 03:40:10;;;;;;;18.70;12.97;;;;;;;;;;5096254;28;20246;-82
2020/12/02 03:42:36;;;;;;;19.37;12.90;;;;;;;;;;5097036;28;20221;-82
2020/12/02 03:45:03;;;;;;;17.10;12.47;;;;;;;;;;5096618;28;20233;-82
2020/12/02 03:47:29;;;;;;;18.80;12.67;;;;;;;;;;5097002;28;20283;-81
2020/12/02 03:49:55;;;;;;;20.50;12.43;;;;;;;;;;5096903;28;20218;-82
2020/12/02 03:52:22;;;;;;;19.00;13.43;;;;;;;;;;5097035;28;20291;-81
2020/12/02 03:54:48;;;;;;;18.17;13.00;;;;;;;;;;5096415;28;20559;-81
2020/12/02 03:57:14;;;;;;;19.40;13.40;;;;;;;;;;5096961;28;20230;-82
2020/12/02 03:59:41;;;;;;;18.10;12.90;;;;;;;;;;5096446;28;20253;-80
2020/12/02 04:02:07;;;;;;;18.73;12.93;;;;;;;;;;5096921;28;20226;-82
2020/12/02 04:04:33;;;;;;;16.63;12.43;;;;;;;;;;5096719;28;20530;-84
2020/12/02 04:06:59;;;;;;;20.83;12.93;;;;;;;;;;5096786;28;20237;-83
2020/12/02 04:09:26;;;;;;;18.33;13.17;;;;;;;;;;5096341;28;20226;-81
2020/12/02 04:11:52;;;;;;;19.77;13.43;;;;;;;;;;5096664;28;20229;-81
2020/12/02 04:14:18;;;;;;;18.60;12.70;;;;;;;;;;5096655;28;20226;-82
2020/12/02 04:16:44;;;;;;;19.07;13.20;;;;;;;;;;5096608;28;20653;-82
2020/12/02 04:19:10;;;;;;;16.83;12.37;;;;;;;;;;5095987;28;20561;-82
2020/12/02 04:21:36;;;;;;;17.87;13.33;;;;;;;;;;5096510;28;20233;-82
2020/12/02 04:24:03;;;;;;;17.90;12.57;;;;;;;;;;5096005;28;20240;-82
2020/12/02 04:26:29;;;;;;;17.83;13.33;;;;;;;;;;5096434;28;20234;-81
2020/12/02 04:28:56;;;;;;;16.53;12.90;;;;;;;;;;5095943;28;20228;-82
2020/12/02 04:31:22;;;;;;;17.33;13.17;;;;;;;;;;5095938;28;20264;-80
2020/12/02 04:33:48;;;;;;;16.67;12.20;;;;;;;;;;5095952;28;20236;-80
2020/12/02 04:36:14;;;;;;;18.33;13.03;;;;;;;;;;5096289;28;20236;-81
2020/12/02 04:38:41;;;;;;;19.60;12.77;;;;;;;;;;5094447;28;20225;-80
2020/12/02 04:41:09;;;;;;;16.90;13.07;;;;;;;;;;5096066;28;20228;-81
2020/12/02 04:43:37;;;;;;;20.03;13.53;;;;;;;;;;5095839;28;20205;-82
2020/12/02 04:46:08;;;;;;;19.93;13.57;;;;;;;;;;5095829;28;20210;-81
2020/12/02 04:48:34;;;;;;;17.83;13.47;;;;;;;;;;5095892;28;20233;-83
2020/12/02 04:51:02;;;;;;;18.23;13.00;;;;;;;;;;5095658;28;20551;-82
2020/12/02 04:53:28;;;;;;;18.87;13.80;;;;;;;;;;5095260;28;20206;-82
2020/12/02 04:55:55;;;;;;;19.10;13.20;;;;;;;;;;5096004;28;20626;-83
2020/12/02 04:58:26;;;;;;;16.40;12.70;;;;;;;;;;5094998;28;20202;-82
2020/12/02 05:00:54;;;;;;;19.33;14.03;;;;;;;;;;5095507;28;20262;-83
2020/12/02 05:03:20;;;;;;;20.83;14.27;;;;;;;;;;5095688;28;20236;-81
2020/12/02 05:05:46;;;;;;;19.60;14.30;;;;;;;;;;5095771;28;20236;-81
2020/12/02 05:08:15;;;;;;;21.43;14.63;;;;;;;;;;5095474;28;20229;-80
2020/12/02 05:10:41;;;;;;;19.50;13.90;;;;;;;;;;5095741;28;20229;-84
2020/12/02 05:13:09;;;;;;;21.07;15.10;;;;;;;;;;5095222;28;20225;-81
2020/12/02 05:15:35;;;;;;;19.47;14.50;;;;;;;;;;5095595;28;20622;-82
2020/12/02 05:18:05;;;;;;;20.10;14.63;;;;;;;;;;5095455;28;20205;-79
2020/12/02 05:20:32;;;;;;;18.27;13.97;;;;;;;;;;5095603;28;20253;-81
2020/12/02 05:23:08;;;;;;;19.73;13.93;;;;;;;;;;5094897;28;20229;-81
2020/12/02 05:25:34;;;;;;;19.03;13.33;;;;;;;;;;5095373;28;20225;-80
2020/12/02 05:28:03;;;;;;;19.80;13.87;;;;;;;;;;5094869;28;20911;-82
2020/12/02 05:30:31;;;;;;;19.67;13.93;;;;;;;;;;5094843;28;20221;-82
2020/12/02 05:33:00;;;;;;;18.53;13.13;;;;;;;;;;5095195;28;20240;-80
2020/12/02 05:35:29;;;;;;;19.97;13.23;;;;;;;;;;5095378;28;20240;-80
2020/12/02 05:37:56;;;;;;;21.10;14.33;;;;;;;;;;5095027;28;20225;-79
2020/12/02 05:40:22;;;;;;;19.73;13.50;;;;;;;;;;5095178;28;20680;-81
2020/12/02 05:42:52;;;;;;;20.33;13.70;;;;;;;;;;5094592;28;20229;-80
2020/12/02 05:45:20;;;;;;;18.83;13.47;;;;;;;;;;5095322;28;20225;-82
2020/12/02 05:47:49;;;;;;;20.77;13.83;;;;;;;;;;5094929;28;20221;-85
2020/12/02 05:50:15;;;;;;;20.37;13.70;;;;;;;;;;5095208;28;20236;-81
2020/12/02 05:52:43;;;;;;;19.60;14.03;;;;;;;;;;5094383;28;20326;-81
2020/12/02 05:55:13;;;;;;;18.73;13.03;;;;;;;;;;5095188;28;20236;-80
2020/12/02 05:57:41;;;;;;;21.30;14.07;;;;;;;;;;5094818;28;20236;-81
2020/12/02 06:00:08;;;;;;;22.20;14.77;;;;;;;;;;5094967;28;20256;-80
2020/12/02 06:02:37;;;;;;;21.00;14.30;;;;;;;;;;5094842;28;20233;-81
2020/12/02 06:05:07;;;;;;;19.27;13.47;;;;;;;;;;5099147;28;20625;-81
2020/12/02 06:07:47;;;;;;;23.40;14.13;;;;;;;;;;5098974;28;20586;-81
2020/12/02 06:10:15;;;;;;;22.17;14.13;;;;;;;;;;5099182;28;20637;-82
2020/12/02 06:12:42;;;;;;;21.60;14.30;;;;;;;;;;5098442;28;20483;-81
2020/12/02 06:15:15;;;;;;;23.13;13.37;;;;;;;;;;5099135;28;20210;-80
2020/12/02 06:17:41;;;;;;;21.93;14.70;;;;;;;;;;5098290;28;20209;-80
2020/12/02 06:20:07;;;;;;;19.83;13.70;;;;;;;;;;5098843;28;20637;-82
2020/12/02 06:22:39;;;;;;;21.40;14.53;;;;;;;;;;5097786;28;20240;-80
2020/12/02 06:25:14;;;;;;;22.50;14.63;;;;;;;;;;5098372;28;20236;-82
2020/12/02 06:27:43;;;;;;;22.03;14.43;;;;;;;;;;5097827;28;20233;-82
2020/12/02 06:30:14;;;;;;;23.17;14.37;;;;;;;;;;5098013;28;20242;-82
2020/12/02 06:32:56;;;;;;;21.40;14.27;;;;;;;;;;5097715;28;20222;-81
2020/12/02 06:35:23;;;;;;;20.10;14.03;;;;;;;;;;5097849;28;20244;-80
2020/12/02 06:38:10;;;;;;;20.07;13.50;;;;;;;;;;5097461;28;20240;-81
2020/12/02 06:40:37;;;;;;;22.07;14.57;;;;;;;;;;5097756;28;20626;-81
2020/12/02 06:43:05;;;;;;;20.37;14.87;;;;;;;;;;5097140;28;20233;-81
2020/12/02 06:45:34;;;;;;;19.97;14.50;;;;;;;;;;5097707;28;20253;-82
2020/12/02 06:48:01;;;;;;;18.63;13.10;;;;;;;;;;5097915;28;20499;-81
2020/12/02 06:50:30;;;;;;;19.83;14.13;;;;;;;;;;5098298;28;20262;-81
2020/12/02 06:53:08;;;;;;;16.77;12.57;;;;;;;;;;5097814;28;20213;-81
2020/12/02 06:55:34;;;;;;;17.70;12.40;;;;;;;;;;5097693;28;20555;-83
2020/12/02 06:58:01;;;;;;;16.03;12.37;;;;;;;;;;5097342;28;20240;-83
2020/12/02 07:00:29;;;;;;;18.37;12.37;;;;;;;;;;5097909;28;20260;-83
2020/12/02 07:02:57;;;;;;;18.33;12.73;;;;;;;;;;5097874;28;20559;-81
2020/12/02 07:05:25;;;;;;;18.03;12.33;;;;;;;;;;5098006;28;20213;-83
2020/12/02 07:08:01;;;;;;;17.57;12.23;;;;;;;;;;5097712;28;20244;-81
2020/12/02 07:10:27;;;;;;;17.10;13.23;;;;;;;;;;5097849;28;20520;-83
2020/12/02 07:12:54;;;;;;;16.43;12.00;;;;;;;;;;5097160;28;20230;-83
2020/12/02 07:15:20;;;;;;;16.60;12.70;;;;;;;;;;5095377;28;20244;-82
2020/12/02 07:17:47;;;;;;;17.53;12.97;;;;;;;;;;5095812;28;20198;-81
2020/12/02 07:20:15;;;;;;;16.63;12.37;;;;;;;;;;5097263;28;20317;-82
2020/12/02 07:22:45;;;;;;;17.90;12.33;;;;;;;;;;5097246;28;20628;-82
2020/12/02 07:25:11;;;;;;;17.70;12.20;;;;;;;;;;5097310;28;20212;-82
2020/12/02 07:27:40;;;;;;;17.33;12.77;;;;;;;;;;5097312;28;20249;-81
2020/12/02 07:30:08;;;;;;;18.10;12.60;;;;;;;;;;5097157;28;20242;-82
2020/12/02 07:32:34;;;;;;;16.43;12.17;;;;;;;;;;5097144;28;20252;-81
2020/12/02 07:35:02;;;;;;;17.13;12.33;;;;;;;;;;5097065;28;20206;-81
2020/12/02 07:37:28;;;;;;;16.47;11.67;;;;;;;;;;5096204;28;20244;-81
2020/12/02 07:39:55;;;;;;;15.13;11.60;;;;;;;;;;5097204;28;20249;-81
2020/12/02 07:42:22;;;;;;;18.27;12.97;;;;;;;;;;5096839;28;20622;-81
2020/12/02 07:44:57;;;;;;;23.07;15.17;;;;;;;;;;5096872;28;20233;-82
2020/12/02 07:47:23;;;;;;;17.77;12.90;;;;;;;;;;5096658;28;20494;-81
2020/12/02 07:49:54;;;;;;;17.43;11.73;;;;;;;;;;5096993;28;20532;-81
2020/12/02 07:52:23;;;;;;;16.17;12.07;;;;;;;;;;5096520;28;20225;-81
2020/12/02 07:54:52;;;;;;;15.63;11.83;;;;;;;;;;5096963;28;20484;-82
2020/12/02 07:57:18;;;;;;;19.13;12.43;;;;;;;;;;5097045;28;20626;-81
2020/12/02 07:59:47;;;;;;;15.57;11.87;;;;;;;;;;5096946;28;20613;-81
2020/12/02 08:02:16;;;;;;;16.00;11.43;;;;;;;;;;5096576;28;20271;-81
2020/12/02 08:04:56;;;;;;;15.90;11.27;;;;;;;;;;5097025;28;20486;-81
2020/12/02 08:07:25;;;;;;;12.93;10.77;;;;;;;;;;5096679;28;20208;-82
2020/12/02 08:09:54;;;;;;;13.60;10.70;;;;;;;;;;5096738;28;20232;-81
2020/12/02 08:12:27;;;;;;;13.27;10.23;;;;;;;;;;5096572;28;20271;-80
2020/12/02 08:14:59;;;;;;;13.43;10.43;;;;;;;;;;5096364;28;20245;-79
2020/12/02 08:17:26;;;;;;;13.87;10.53;;;;;;;;;;5096332;28;20236;-80
2020/12/02 08:19:53;;;;;;;14.13;10.37;;;;;;;;;;5096534;28;20233;-79
2020/12/02 08:22:24;;;;;;;11.80;9.27;;;;;;;;;;5096385;28;20232;-80
2020/12/02 08:24:53;;;;;;;11.07;9.27;;;;;;;;;;5096068;28;20237;-80
2020/12/02 08:27:19;;;;;;;11.33;9.13;;;;;;;;;;5096085;28;20610;-80
2020/12/02 08:29:49;;;;;;;12.93;9.57;;;;;;;;;;5096065;28;20568;-81
2020/12/02 08:32:19;;;;;;;11.37;9.07;;;;;;;;;;5095681;28;20241;-81
2020/12/02 08:34:45;;;;;;;11.27;8.93;;;;;;;;;;5096271;28;20229;-81
2020/12/02 08:37:23;;;;;;;11.23;8.67;;;;;;;;;;5096128;28;20471;-81
2020/12/02 08:39:50;;;;;;;11.27;8.93;;;;;;;;;;5095987;28;20213;-81
2020/12/02 08:42:24;;;;;;;12.07;9.23;;;;;;;;;;5095414;28;20206;-81
2020/12/02 08:45:00;;;;;;;9.90;8.67;;;;;;;;;;5095713;28;20229;-81
2020/12/02 08:47:26;;;;;;;11.80;9.03;;;;;;;;;;5095258;28;20237;-80
2020/12/02 08:49:52;;;;;;;13.13;9.90;;;;;;;;;;5095847;28;20229;-81
2020/12/02 08:52:18;;;;;;;12.43;9.40;;;;;;;;;;5095860;28;20220;-81
2020/12/02 08:54:44;;;;;;;12.93;9.97;;;;;;;;;;5095831;28;20216;-80
2020/12/02 08:57:11;;;;;;;12.53;9.23;;;;;;;;;;5095762;28;20233;-81
2020/12/02 08:59:38;;;;;;;13.57;10.10;;;;;;;;;;5094566;28;20189;-81
2020/12/02 09:02:09;;;;;;;12.33;9.60;;;;;;;;;;5094984;28;20245;-80
2020/12/02 09:04:35;;;;;;;12.43;9.30;;;;;;;;;;5095551;28;20230;-82
2020/12/02 09:07:01;;;;;;;9.93;8.30;;;;;;;;;;5095712;28;20209;-81
2020/12/02 09:09:27;;;;;;;10.87;9.17;;;;;;;;;;5095403;28;20237;-81
2020/12/02 09:11:54;;;;;;;10.83;8.37;;;;;;;;;;5095224;28;20233;-81
2020/12/02 09:14:20;;;;;;;10.77;8.80;;;;;;;;;;5095599;28;20226;-81
2020/12/02 09:16:48;;;;;;;10.90;8.77;;;;;;;;;;5095476;28;20513;-81
2020/12/02 09:19:16;;;;;;;10.23;8.40;;;;;;;;;;5095225;28;20237;-81
2020/12/02 09:21:42;;;;;;;11.47;9.07;;;;;;;;;;5094949;28;20249;-82
2020/12/02 09:24:08;;;;;;;11.27;8.93;;;;;;;;;;5095305;28;20633;-81
2020/12/02 09:26:35;;;;;;;10.40;8.23;;;;;;;;;;5093759;28;20198;-81
2020/12/02 09:29:01;;;;;;;11.97;9.20;;;;;;;;;;5095192;28;20214;-81
2020/12/02 09:31:29;;;;;;;11.57;9.20;;;;;;;;;;5094982;28;20222;-81
2020/12/02 09:33:56;;;;;;;11.80;8.87;;;;;;;;;;5095273;28;20205;-80
2020/12/02 09:36:23;;;;;;;9.93;8.63;;;;;;;;;;5095064;28;20280;-81
2020/12/02 09:38:50;;;;;;;12.97;9.40;;;;;;;;;;5094560;28;20236;-80
2020/12/02 09:41:28;;;;;;;10.03;8.30;;;;;;;;;;5094543;28;20264;-81
2020/12/02 09:44:02;;;;;;;13.53;8.87;;;;;;;;;;5095064;28;20687;-81
2020/12/02 09:46:30;;;;;;;10.87;8.40;;;;;;;;;;5094598;28;20229;-81
2020/12/02 09:48:57;;;;;;;11.00;9.37;;;;;;;;;;5094758;28;20780;-80
2020/12/02 09:51:25;;;;;;;11.37;8.97;;;;;;;;;;5094650;28;20517;-81
2020/12/02 09:53:53;;;;;;;10.57;8.60;;;;;;;;;;5095129;28;20621;-81
2020/12/02 09:56:19;;;;;;;12.33;9.43;;;;;;;;;;5094999;28;20202;-81
2020/12/02 09:58:46;;;;;;;10.40;8.83;;;;;;;;;;5094970;28;20230;-81
2020/12/02 10:01:14;;;;;;;14.53;9.33;;;;;;;;;;5094965;28;20249;-82
2020/12/02 10:03:48;;;;;;;11.30;8.63;;;;;;;;;;5095123;28;20233;-82
2020/12/02 10:06:32;;;;;;;10.80;8.77;;;;;;;;;;5094576;28;20212;-81
2020/12/02 10:09:09;;;;;;;10.77;8.63;;;;;;;;;;5094829;28;20258;-81
2020/12/02 10:11:44;;;;;;;13.63;9.30;;;;;;;;;;5094961;28;20490;-81
2020/12/02 10:14:20;;;;;;;11.77;8.80;;;;;;;;;;5094906;28;20205;-82
2020/12/02 10:16:53;;;;;;;11.53;9.13;;;;;;;;;;5094421;28;20205;-81
2020/12/02 10:19:27;;;;;;;12.87;9.57;;;;;;;;;;5094709;28;20220;-81
2020/12/02 10:21:58;;;;;;;14.13;9.63;;;;;;;;;;5094399;28;20653;-82
2020/12/02 10:24:33;;;;;;;10.60;8.87;;;;;;;;;;5094513;28;20582;-81
2020/12/02 10:27:05;;;;;;;12.50;9.63;;;;;;;;;;5094550;28;20209;-81
2020/12/02 10:29:33;;;;;;;14.97;9.60;;;;;;;;;;5094523;28;20731;-80
2020/12/02 10:32:17;;;;;;;10.40;9.00;;;;;;;;;;5093514;28;20315;-81
2020/12/02 10:34:44;;;;;;;11.83;9.63;;;;;;;;;;5094324;28;20233;-81
2020/12/02 10:37:13;;;;;;;15.23;10.53;;;;;;;;;;5094617;28;20653;-81
2020/12/02 10:39:40;;;;;;;13.70;10.50;;;;;;;;;;5094505;28;20209;-81
2020/12/02 10:42:12;;;;;;;21.27;12.97;;;;;;;;;;5094250;28;20249;-80
2020/12/02 10:44:48;;;;;;;15.43;12.00;;;;;;;;;;5093923;28;20229;-81
2020/12/02 10:47:30;;;;;;;12.30;10.07;;;;;;;;;;5094685;28;20914;-81
2020/12/02 10:49:57;;;;;;;12.67;9.27;;;;;;;;;;5096298;28;20206;-80
2020/12/02 10:52:24;;;;;;;11.40;9.37;;;;;;;;;;5098143;28;20230;-81
2020/12/02 10:54:52;;;;;;;13.80;9.67;;;;;;;;;;5097908;28;20256;-81
2020/12/02 10:57:19;;;;;;;13.70;10.00;;;;;;;;;;5098053;28;20252;-82
2020/12/02 10:59:46;;;;;;;12.47;9.70;;;;;;;;;;5097492;28;20217;-81
2020/12/02 11:02:14;;;;;;;13.37;10.37;;;;;;;;;;5097924;28;20306;-81
2020/12/02 11:04:41;;;;;;;18.83;10.03;;;;;;;;;;5098021;28;20229;-81
2020/12/02 11:07:12;;;;;;;13.97;10.47;;;;;;;;;;5097749;28;20213;-82
2020/12/02 11:09:43;;;;;;;15.23;11.77;;;;;;;;;;5098004;28;20544;-82
2020/12/02 11:12:18;;;;;;;16.23;11.40;;;;;;;;;;5097618;28;20225;-84
2020/12/02 11:14:56;;;;;;;14.00;10.20;;;;;;;;;;5098259;28;20233;-83
2020/12/02 11:17:26;;;;;;;14.20;10.97;;;;;;;;;;5097862;28;20229;-80
2020/12/02 11:19:53;;;;;;;15.30;11.57;;;;;;;;;;5097328;28;20205;-80
2020/12/02 11:22:34;;;;;;;14.60;11.03;;;;;;;;;;5097542;28;20633;-81
2020/12/02 11:25:04;;;;;;;18.83;13.00;;;;;;;;;;5094168;28;20197;-80
2020/12/02 11:27:31;;;;;;;18.83;13.63;;;;;;;;;;5097590;28;20201;-82
2020/12/02 11:29:57;;;;;;;15.33;11.63;;;;;;;;;;5096664;28;20264;-81
2020/12/02 11:32:33;;;;;;;20.73;14.47;;;;;;;;;;5097461;28;20502;-81
2020/12/02 11:35:03;;;;;;;15.90;11.43;;;;;;;;;;5097004;28;20225;-81
2020/12/02 11:37:34;;;;;;;15.80;11.60;;;;;;;;;;5097088;28;20232;-83
2020/12/02 11:40:04;;;;;;;13.97;10.53;;;;;;;;;;5097247;28;20206;-84
2020/12/02 11:42:37;;;;;;;14.13;11.00;;;;;;;;;;5097283;28;20249;-80
2020/12/02 11:45:07;;;;;;;15.20;10.83;;;;;;;;;;5096859;28;20237;-84
2020/12/02 11:47:40;;;;;;;14.60;10.50;;;;;;;;;;5097294;28;20240;-82
2020/12/02 11:50:13;;;;;;;15.90;10.83;;;;;;;;;;5096870;28;20205;-82
2020/12/02 11:52:43;;;;;;;15.90;11.10;;;;;;;;;;5096896;28;20268;-81
2020/12/02 11:55:12;;;;;;;16.97;11.60;;;;;;;;;;5097349;28;20238;-81
2020/12/02 11:57:45;;;;;;;15.77;11.47;;;;;;;;;;5096922;28;20229;-82
2020/12/02 12:00:11;;;;;;;16.87;10.90;;;;;;;;;;5096352;28;20241;-81
2020/12/02 12:02:41;;;;;;;21.07;12.17;;;;;;;;;;5096182;28;20253;-81
2020/12/02 12:05:11;;;;;;;14.23;11.10;;;;;;;;;;5095445;28;20237;-84
2020/12/02 12:07:41;;;;;;;14.17;10.83;;;;;;;;;;5096162;28;20233;-83
2020/12/02 12:10:17;;;;;;;14.87;11.03;;;;;;;;;;5096297;28;20237;-83
2020/12/02 12:12:46;;;;;;;15.17;11.20;;;;;;;;;;5096764;28;20300;-83
2020/12/02 12:15:16;;;;;;;15.20;11.73;;;;;;;;;;5096271;28;20636;-81
2020/12/02 12:17:43;;;;;;;16.60;11.70;;;;;;;;;;5096671;28;20245;-81
2020/12/02 12:20:12;;;;;;;16.30;11.57;;;;;;;;;;5096154;28;20544;-81
2020/12/02 12:22:43;;;;;;;16.63;12.13;;;;;;;;;;5096471;28;20249;-82
2020/12/02 12:25:10;;;;;;;17.03;12.27;;;;;;;;;;5096253;28;20233;-79
2020/12/02 12:27:37;;;;;;;18.47;12.53;;;;;;;;;;5096178;28;20225;-81
2020/12/02 12:30:06;;;;;;;16.13;12.37;;;;;;;;;;5095215;28;20248;-80
2020/12/02 12:32:36;;;;;;;14.83;11.20;;;;;;;;;;5096367;28;20236;-79
2020/12/02 12:35:04;;;;;;;22.13;11.97;;;;;;;;;;5095612;28;20225;-81
2020/12/02 12:37:38;;;;;;;15.77;12.07;;;;;;;;;;5096013;28;20237;-79
2020/12/02 12:40:07;;;;;;;17.00;12.20;;;;;;;;;;5095776;28;20235;-79
2020/12/02 12:42:38;;;;;;;18.80;13.97;;;;;;;;;;5096106;28;20276;-80
2020/12/02 12:45:10;;;;;;;20.23;12.87;;;;;;;;;;5095567;28;20233;-80
2020/12/02 12:47:37;;;;;;;19.37;12.20;;;;;;;;;;5096068;28;20229;-79
2020/12/02 12:50:05;;;;;;;18.43;12.17;;;;;;;;;;5095816;28;20225;-84
2020/12/02 12:52:32;;;;;;;20.73;11.80;;;;;;;;;;5095937;28;20617;-83
2020/12/02 12:54:59;;;;;;;16.67;11.67;;;;;;;;;;5095108;28;20544;-79
2020/12/02 12:57:26;;;;;;;16.57;12.03;;;;;;;;;;5095846;28;20233;-80
2020/12/02 12:59:54;;;;;;;17.23;12.10;;;;;;;;;;5095493;28;20463;-81
2020/12/02 13:02:23;;;;;;;17.20;11.80;;;;;;;;;;5095661;28;20253;-81
2020/12/02 13:04:49;;;;;;;16.47;12.50;;;;;;;;;;5095134;28;20244;-82
2020/12/02 13:07:17;;;;;;;16.03;11.67;;;;;;;;;;5095478;28;20237;-79
2020/12/02 13:09:53;;;;;;;19.07;12.47;;;;;;;;;;5095298;28;20540;-79
2020/12/02 13:12:20;;;;;;;19.80;12.80;;;;;;;;;;5095047;28;20811;-80
2020/12/02 13:14:54;;;;;;;29.93;18.27;;;;;;;;;;5094602;28;20502;-83
2020/12/02 13:17:25;;;;;;;16.40;12.23;;;;;;;;;;5095650;28;20225;-81
2020/12/02 13:19:57;;;;;;;18.77;12.33;;;;;;;;;;5095071;28;20221;-82
2020/12/02 13:22:29;;;;;;;22.97;14.80;;;;;;;;;;5095436;28;20248;-82
2020/12/02 13:24:59;;;;;;;20.33;13.83;;;;;;;;;;5094697;28;20719;-78
2020/12/02 13:27:31;;;;;;;35.00;19.53;;;;;;;;;;5095517;28;20236;-81
2020/12/02 13:30:01;;;;;;;30.03;17.87;;;;;;;;;;5094885;28;20256;-81
2020/12/02 13:32:32;;;;;;;22.33;13.63;;;;;;;;;;5095467;28;20198;-79
2020/12/02 13:34:59;;;;;;;22.57;14.53;;;;;;;;;;5095120;28;20497;-79
2020/12/02 13:37:25;;;;;;;21.17;13.77;;;;;;;;;;5095368;28;20259;-79
2020/12/02 13:39:51;;;;;;;19.20;13.40;;;;;;;;;;5094531;28;20233;-79
2020/12/02 13:42:18;;;;;;;19.50;13.80;;;;;;;;;;5095146;28;20245;-80
2020/12/02 13:44:49;;;;;;;20.20;13.23;;;;;;;;;;5095127;28;20229;-81
2020/12/02 13:47:15;;;;;;;21.40;13.03;;;;;;;;;;5095341;28;20233;-82
2020/12/02 13:49:43;;;;;;;19.70;13.83;;;;;;;;;;5094965;28;20233;-79
2020/12/02 13:52:14;;;;;;;24.80;15.17;;;;;;;;;;5094918;28;20226;-82
2020/12/02 13:54:45;;;;;;;19.90;13.37;;;;;;;;;;5094654;28;20221;-81
2020/12/02 13:57:14;;;;;;;18.63;12.73;;;;;;;;;;5095095;28;20229;-79
2020/12/02 13:59:46;;;;;;;18.47;12.30;;;;;;;;;;5094677;28;20540;-81
2020/12/02 14:02:15;;;;;;;25.67;16.90;;;;;;;;;;5094943;28;20244;-81
2020/12/02 14:04:48;;;;;;;26.47;16.83;;;;;;;;;;5094703;28;20236;-80
2020/12/02 14:07:15;;;;;;;18.57;12.93;;;;;;;;;;5094996;28;20233;-80
2020/12/02 14:09:45;;;;;;;25.57;17.00;;;;;;;;;;5094645;28;20212;-79
2020/12/02 14:12:13;;;;;;;27.10;16.30;;;;;;;;;;5094820;28;20209;-80
2020/12/02 14:14:40;;;;;;;19.67;13.50;;;;;;;;;;5094262;28;20244;-80
2020/12/02 14:17:07;;;;;;;19.00;12.37;;;;;;;;;;5094702;28;20202;-79
2020/12/02 14:19:33;;;;;;;19.23;12.57;;;;;;;;;;5094198;28;20225;-80
2020/12/02 14:22:02;;;;;;;18.93;13.00;;;;;;;;;;5094483;28;20242;-81
2020/12/02 14:24:28;;;;;;;17.47;12.23;;;;;;;;;;5093015;28;20241;-79
2020/12/02 14:26:54;;;;;;;21.33;13.07;;;;;;;;;;5098620;28;20571;-79